createdAt,value
2023-01-28T00:01:06.636Z,24.93
2023-01-28T00:02:06.575Z,24.88
2023-01-28T00:03:06.570Z,24.90
2023-01-28T00:04:06.607Z,24.91
2023-01-28T00:05:06.554Z,24.93
2023-01-28T00:06:06.527Z,24.91
2023-01-28T00:07:06.550Z,24.94
2023-01-28T00:09:06.503Z,24.94
2023-01-28T00:10:06.531Z,24.93
2023-01-28T00:11:06.489Z,24.94
2023-01-28T00:12:06.476Z,24.93
2023-01-28T00:13:06.480Z,24.91
2023-01-28T00:14:06.491Z,24.91
2023-01-28T00:15:06.487Z,24.94
2023-01-28T00:16:06.492Z,24.91
2023-01-28T00:17:06.451Z,24.88
2023-01-28T00:18:06.432Z,24.87
2023-01-28T00:19:06.412Z,24.94
2023-01-28T00:20:06.418Z,24.94
2023-01-28T00:22:06.391Z,24.91
2023-01-28T00:23:06.383Z,24.91
2023-01-28T00:24:06.407Z,24.90
2023-01-28T00:25:06.415Z,24.90
2023-01-28T00:26:06.355Z,24.91
2023-01-28T00:27:06.359Z,24.88
2023-01-28T00:28:06.327Z,24.87
2023-01-28T00:29:06.332Z,24.91
2023-01-28T00:30:06.326Z,24.87
2023-01-28T00:31:06.383Z,24.87
2023-01-28T00:32:06.325Z,24.88
2023-01-28T00:37:06.240Z,24.87
2023-01-28T00:38:06.241Z,24.87
2023-01-28T00:39:06.224Z,24.90
2023-01-28T00:40:06.236Z,24.88
2023-01-28T00:41:06.189Z,24.87
2023-01-28T01:09:08.337Z,24.87
2023-01-28T01:13:06.117Z,24.86
2023-01-28T01:14:06.054Z,24.86
2023-01-28T01:15:06.052Z,24.84
2023-01-28T01:16:06.070Z,24.81
2023-01-28T01:17:06.060Z,24.84
2023-01-28T01:18:06.013Z,24.83
2023-01-28T01:19:05.992Z,24.84
2023-01-28T01:20:05.996Z,24.90
2023-01-28T01:21:05.991Z,24.88
2023-01-28T01:22:05.956Z,24.87
2023-01-28T01:23:05.952Z,24.87
2023-01-28T01:24:06.021Z,24.83
2023-01-28T01:25:05.945Z,24.83
2023-01-28T01:26:05.965Z,24.84
2023-01-28T01:27:05.914Z,24.84
2023-01-28T01:28:05.917Z,24.81
2023-01-28T01:29:05.892Z,24.84
2023-01-28T01:30:05.891Z,24.83
2023-01-28T01:31:05.932Z,24.84
2023-01-28T01:32:05.900Z,24.86
2023-01-28T01:33:05.817Z,24.84
2023-01-28T01:34:05.812Z,24.83
2023-01-28T01:35:05.825Z,24.84
2023-01-28T01:36:05.822Z,24.81
2023-01-28T01:37:05.786Z,24.81
2023-01-28T01:38:05.773Z,24.81
2023-01-28T01:39:05.753Z,24.79
2023-01-28T01:40:05.761Z,24.79
2023-01-28T01:41:05.778Z,24.80
2023-01-28T01:42:05.736Z,24.83
2023-01-28T01:43:05.725Z,24.83
2023-01-28T01:44:05.712Z,24.83
2023-01-28T01:45:05.676Z,24.81
2023-01-28T01:46:05.709Z,24.79
2023-01-28T01:47:05.686Z,24.83
2023-01-28T01:48:05.695Z,24.80
2023-01-28T01:49:05.657Z,24.81
2023-01-28T01:50:05.645Z,24.83
2023-01-28T01:51:05.670Z,24.84
2023-01-28T01:52:05.625Z,24.83
2023-01-28T01:53:05.595Z,24.83
2023-01-28T01:54:05.583Z,24.80
2023-01-28T01:55:05.580Z,24.80
2023-01-28T01:56:05.566Z,24.79
2023-01-28T01:57:05.544Z,24.80
2023-01-28T01:58:05.573Z,24.81
2023-01-28T01:59:05.517Z,24.80
2023-01-28T02:00:05.549Z,24.81
2023-01-28T02:01:05.539Z,24.83
2023-01-28T02:11:05.435Z,24.80
2023-01-28T02:12:05.428Z,24.81
2023-01-28T02:13:05.384Z,24.86
2023-01-28T02:14:05.391Z,24.81
2023-01-28T02:15:05.348Z,24.86
2023-01-28T02:16:05.325Z,24.80
2023-01-28T02:17:05.366Z,24.83
2023-01-28T02:18:05.338Z,24.81
2023-01-28T02:19:05.324Z,24.86
2023-01-28T02:20:05.309Z,24.81
2023-01-28T02:21:05.288Z,24.84
2023-01-28T02:22:05.297Z,24.83
2023-01-28T02:23:05.257Z,24.79
2023-01-28T02:24:05.309Z,24.81
2023-01-28T02:25:05.251Z,24.83
2023-01-28T02:26:05.259Z,24.83
2023-01-28T02:27:05.238Z,24.81
2023-01-28T02:28:05.223Z,24.79
2023-01-28T02:29:05.210Z,24.83
2023-01-28T02:30:05.199Z,24.83
2023-01-28T02:31:05.303Z,24.80
2023-01-28T02:32:05.220Z,24.80
2023-01-28T02:33:05.167Z,24.80
2023-01-28T02:34:05.134Z,24.80
2023-01-28T02:35:05.135Z,24.77
2023-01-28T02:36:05.135Z,24.84
2023-01-28T02:37:05.124Z,24.81
2023-01-28T02:38:05.097Z,24.80
2023-01-28T02:39:05.076Z,24.80
2023-01-28T02:40:05.126Z,24.84
2023-01-28T02:41:05.081Z,24.86
2023-01-28T02:42:05.052Z,24.84
2023-01-28T02:43:05.012Z,24.81
2023-01-28T02:44:05.027Z,24.80
2023-01-28T02:45:05.096Z,24.80
2023-01-28T02:46:05.020Z,24.79
2023-01-28T02:47:05.005Z,24.80
2023-01-28T02:48:04.962Z,24.79
2023-01-28T02:49:04.957Z,24.80
2023-01-28T02:50:05.107Z,24.77
2023-01-28T02:51:04.949Z,24.81
2023-01-28T02:52:04.937Z,24.77
2023-01-28T02:53:04.901Z,24.77
2023-01-28T02:54:04.896Z,24.80
2023-01-28T02:55:04.917Z,24.76
2023-01-28T02:56:04.895Z,24.77
2023-01-28T02:57:04.879Z,24.80
2023-01-28T02:58:04.856Z,24.77
2023-01-28T03:03:04.833Z,24.79
2023-01-28T03:04:05.677Z,24.79
2023-01-28T03:05:04.778Z,24.77
2023-01-28T03:06:04.763Z,24.74
2023-01-28T03:07:04.771Z,24.76
2023-01-28T03:08:04.781Z,24.77
2023-01-28T03:09:04.733Z,24.76
2023-01-28T03:10:04.721Z,24.76
2023-01-28T03:11:04.702Z,24.79
2023-01-28T03:12:04.730Z,24.74
2023-01-28T03:13:04.723Z,24.74
2023-01-28T03:14:04.695Z,24.77
2023-01-28T03:15:04.703Z,24.74
2023-01-28T03:16:04.818Z,24.76
2023-01-28T03:17:04.670Z,24.79
2023-01-28T07:07:02.438Z,24.67
2023-01-28T07:08:02.438Z,24.64
2023-01-28T07:09:02.404Z,24.64
2023-01-28T07:10:02.391Z,24.67
2023-01-28T07:11:02.369Z,24.64
2023-01-28T07:12:02.397Z,24.66
2023-01-28T07:13:02.377Z,24.67
2023-01-28T07:14:02.403Z,24.63
2023-01-28T07:15:02.358Z,24.66
2023-01-28T07:16:02.369Z,24.67
2023-01-28T07:17:02.473Z,24.64
2023-01-28T07:18:03.134Z,24.63
2023-01-28T07:19:02.338Z,24.66
2023-01-28T07:20:02.331Z,24.64
2023-01-28T07:21:02.319Z,24.67
2023-01-28T07:22:02.323Z,24.67
2023-01-28T07:23:02.281Z,24.66
2023-01-28T07:24:02.365Z,24.64
2023-01-28T07:25:02.324Z,24.67
2023-01-28T07:26:02.282Z,24.67
2023-01-28T07:27:02.316Z,24.67
2023-01-28T07:28:02.262Z,24.69
2023-01-28T07:29:02.277Z,24.66
2023-01-28T07:30:02.254Z,24.64
2023-01-28T07:31:02.328Z,24.66
2023-01-28T07:32:02.356Z,24.66
2023-01-28T07:33:02.272Z,24.69
2023-01-28T07:34:02.224Z,24.71
2023-01-28T07:35:02.212Z,24.69
2023-01-28T07:36:02.207Z,24.67
2023-01-28T07:37:02.214Z,24.67
2023-01-28T07:38:02.167Z,24.66
2023-01-28T07:39:02.185Z,24.66
2023-01-28T07:40:02.189Z,24.69
2023-01-28T07:41:02.187Z,24.63
2023-01-28T07:42:02.202Z,24.66
2023-01-28T07:43:02.156Z,24.69
2023-01-28T07:44:02.118Z,24.67
2023-01-28T07:45:02.132Z,24.67
2023-01-28T07:46:02.137Z,24.67
2023-01-28T07:47:02.170Z,24.62
2023-01-28T07:48:02.103Z,24.64
2023-01-28T07:49:02.080Z,24.64
2023-01-28T07:50:02.087Z,24.66
2023-01-28T07:51:02.068Z,24.64
2023-01-28T07:52:02.052Z,24.67
2023-01-28T07:53:02.061Z,24.63
2023-01-28T07:54:02.045Z,24.66
2023-01-28T07:55:02.021Z,24.60
2023-01-28T07:56:02.109Z,24.63
2023-01-28T07:57:01.998Z,24.62
2023-01-28T07:58:01.994Z,24.64
2023-01-28T07:59:01.953Z,24.60
2023-01-28T08:00:01.956Z,24.62
2023-01-28T08:01:01.950Z,24.63
2023-01-28T08:02:01.935Z,24.64
2023-01-28T08:03:01.924Z,24.62
2023-01-28T08:04:02.038Z,24.69
2023-01-28T08:05:02.052Z,24.63
2023-01-28T08:06:01.879Z,24.62
2023-01-28T08:07:01.908Z,24.66
2023-01-28T08:08:01.852Z,24.64
2023-01-28T08:09:01.823Z,24.64
2023-01-28T08:10:01.857Z,24.70
2023-01-28T08:11:01.824Z,24.67
2023-01-28T08:12:01.887Z,24.70
2023-01-28T08:13:01.826Z,24.69
2023-01-28T08:14:01.821Z,24.67
2023-01-28T08:15:01.802Z,24.69
2023-01-28T08:16:01.856Z,24.66
2023-01-28T08:17:01.873Z,24.70
2023-01-28T08:18:01.811Z,24.69
2023-01-28T08:19:01.762Z,24.69
2023-01-28T08:20:01.742Z,24.73
2023-01-28T08:21:01.772Z,24.71
2023-01-28T08:22:01.740Z,24.70
2023-01-28T08:23:01.736Z,24.73
2023-01-28T08:24:01.771Z,24.71
2023-01-28T08:25:01.703Z,24.73
2023-01-28T08:26:01.701Z,24.70
2023-01-28T08:27:01.665Z,24.70
2023-01-28T08:28:01.672Z,24.73
2023-01-28T08:29:01.641Z,24.74
2023-01-28T08:30:01.632Z,24.70
2023-01-28T08:31:01.716Z,24.76
2023-01-28T08:32:01.632Z,24.76
2023-01-28T08:33:01.609Z,24.76
2023-01-28T08:34:02.427Z,24.73
2023-01-28T08:35:01.560Z,24.73
2023-01-28T08:36:01.565Z,24.76
2023-01-28T08:37:01.551Z,24.77
2023-01-28T08:38:01.571Z,24.77
2023-01-28T08:39:01.540Z,24.76
2023-01-28T08:40:01.559Z,24.77
2023-01-28T08:41:01.498Z,24.76
2023-01-28T08:42:01.502Z,24.77
2023-01-28T08:43:01.499Z,24.77
2023-01-28T08:44:01.548Z,24.76
2023-01-28T08:45:01.476Z,24.79
2023-01-28T08:46:01.573Z,24.79
2023-01-28T08:47:01.461Z,24.74
2023-01-28T08:48:01.487Z,24.79
2023-01-28T08:49:01.439Z,24.71
2023-01-28T08:50:01.440Z,24.76
2023-01-28T08:51:01.429Z,24.77
2023-01-28T08:52:01.421Z,24.76
2023-01-28T08:53:01.424Z,24.74
2023-01-28T08:54:01.418Z,24.73
2023-01-28T08:55:01.368Z,24.74
2023-01-28T08:56:01.375Z,24.79
2023-01-28T08:57:01.345Z,24.80
2023-01-28T08:58:01.352Z,24.76
2023-01-28T08:59:01.321Z,24.76
2023-01-28T09:00:01.308Z,24.76
2023-01-28T09:01:01.310Z,24.76
2023-01-28T09:02:01.312Z,24.77
2023-01-28T09:03:02.659Z,24.77
2023-01-28T09:04:01.467Z,24.81
2023-01-28T09:05:01.410Z,24.81
2023-01-28T09:06:01.421Z,24.83
2023-01-28T09:07:01.379Z,24.77
2023-01-28T09:08:01.436Z,24.76
2023-01-28T09:09:01.380Z,24.79
2023-01-28T09:10:01.367Z,24.80
2023-01-28T09:11:01.348Z,24.80
2023-01-28T09:12:01.349Z,24.76
2023-01-28T09:13:01.387Z,24.80
2023-01-28T09:14:01.316Z,24.81
2023-01-28T09:15:01.319Z,24.80
2023-01-28T09:16:01.364Z,24.79
2023-01-28T09:17:01.269Z,24.79
2023-01-28T09:18:01.332Z,24.81
2023-01-28T09:19:01.291Z,24.80
2023-01-28T09:20:01.267Z,24.77
2023-01-28T09:21:01.248Z,24.79
2023-01-28T09:22:01.271Z,24.80
2023-01-28T09:23:01.254Z,24.84
2023-01-28T09:24:01.292Z,24.81
2023-01-28T09:25:01.259Z,24.84
2023-01-28T09:26:01.222Z,24.86
2023-01-28T09:27:01.204Z,24.84
2023-01-28T09:28:01.200Z,24.86
2023-01-28T09:29:01.180Z,24.88
2023-01-28T09:30:01.206Z,24.90
2023-01-28T09:31:01.282Z,24.91
2023-01-28T09:32:01.135Z,24.94
2023-01-28T09:33:01.128Z,24.95
2023-01-28T09:34:01.114Z,25.01
2023-01-28T09:35:01.079Z,25.01
2023-01-28T09:36:01.081Z,25.01
2023-01-28T09:37:01.083Z,25.10
2023-01-28T09:38:01.030Z,25.08
2023-01-28T09:39:01.779Z,25.10
2023-01-28T09:40:01.013Z,25.13
2023-01-28T09:41:00.982Z,25.11
2023-01-28T09:42:00.953Z,25.15
2023-01-28T09:43:00.937Z,25.21
2023-01-28T09:44:00.944Z,25.21
2023-01-28T09:45:00.897Z,25.21
2023-01-28T09:46:00.896Z,25.21
2023-01-28T09:47:00.917Z,25.18
2023-01-28T09:48:00.853Z,25.26
2023-01-28T09:49:00.852Z,25.31
2023-01-28T09:50:00.862Z,25.35
2023-01-28T09:51:00.812Z,25.39
2023-01-28T09:52:00.777Z,25.41
2023-01-28T09:53:00.756Z,25.39
2023-01-28T09:54:00.762Z,25.41
2023-01-28T09:55:00.720Z,25.38
2023-01-28T09:56:00.719Z,25.39
2023-01-28T09:57:00.696Z,25.41
2023-01-28T09:58:00.664Z,25.41
2023-01-28T09:59:00.734Z,25.39
2023-01-28T10:00:00.672Z,25.41
2023-01-28T10:01:00.756Z,25.48
2023-01-28T10:02:00.643Z,25.48
2023-01-28T10:03:00.620Z,25.52
2023-01-28T10:04:00.728Z,25.52
2023-01-28T10:05:00.561Z,25.52
2023-01-28T10:06:00.558Z,25.50
2023-01-28T10:07:00.540Z,25.54
2023-01-28T10:08:00.523Z,25.54
2023-01-28T10:09:00.511Z,25.52
2023-01-28T10:10:00.515Z,25.54
2023-01-28T10:11:00.480Z,25.56
2023-01-28T10:12:00.458Z,25.53
2023-01-28T10:13:00.456Z,25.50
2023-01-28T10:14:00.419Z,25.50
2023-01-28T10:15:00.423Z,25.52
2023-01-28T10:16:00.368Z,25.50
2023-01-28T10:17:00.442Z,25.50
2023-01-28T10:18:15.727Z,25.53
2023-01-28T10:19:01.324Z,25.49
2023-01-28T10:20:00.358Z,25.49
2023-01-28T10:21:00.315Z,25.50
2023-01-28T10:22:00.270Z,25.50
2023-01-28T10:23:00.289Z,25.52
2023-01-28T10:24:00.270Z,25.49
2023-01-28T10:25:00.248Z,25.53
2023-01-28T10:26:00.237Z,25.56
2023-01-28T10:27:00.172Z,25.53
2023-01-28T10:28:00.131Z,25.54
2023-01-28T10:29:00.133Z,25.59
2023-01-28T10:30:00.130Z,25.60
2023-01-28T10:31:00.137Z,25.62
2023-01-28T10:32:00.164Z,25.66
2023-01-28T10:33:00.027Z,25.63
2023-01-28T10:34:00.052Z,25.63
2023-01-28T10:35:00.003Z,25.62
2023-01-28T10:35:59.971Z,25.70
2023-01-28T10:36:59.980Z,25.68
2023-01-28T10:37:59.927Z,25.77
2023-01-28T10:38:59.895Z,25.75
2023-01-28T10:39:59.907Z,25.77
2023-01-28T10:40:59.857Z,25.76
2023-01-28T10:41:59.817Z,25.83
2023-01-28T10:42:59.781Z,25.86
2023-01-28T10:43:59.747Z,25.86
2023-01-28T10:44:59.780Z,25.88
2023-01-28T10:45:59.825Z,25.91
2023-01-28T10:46:59.676Z,25.90
2023-01-28T10:47:59.672Z,25.96
2023-01-28T10:48:59.622Z,26.01
2023-01-28T10:49:59.616Z,26.04
2023-01-28T10:50:59.564Z,26.05
2023-01-28T10:51:59.551Z,26.07
2023-01-28T10:52:59.529Z,26.08
2023-01-28T10:53:59.470Z,26.14
2023-01-28T10:54:59.480Z,26.13
2023-01-28T10:55:59.410Z,26.17
2023-01-28T10:56:59.402Z,26.18
2023-01-28T10:57:59.359Z,26.21
2023-01-28T10:58:59.315Z,26.25
2023-01-28T10:59:59.316Z,26.27
2023-01-28T11:00:59.312Z,26.31
2023-01-28T11:01:59.299Z,26.35
2023-01-28T11:02:59.224Z,26.38
2023-01-28T11:03:59.210Z,26.42
2023-01-28T11:04:59.169Z,26.49
2023-01-28T11:05:59.149Z,26.52
2023-01-28T11:06:59.117Z,26.58
2023-01-28T11:07:59.075Z,26.58
2023-01-28T11:09:01.245Z,26.66
2023-01-28T11:09:59.187Z,26.72
2023-01-28T11:10:59.070Z,26.77
2023-01-28T11:11:59.036Z,26.83
2023-01-28T11:12:59.017Z,26.87
2023-01-28T11:13:58.974Z,26.90
2023-01-28T11:14:58.948Z,26.93
2023-01-28T11:15:58.951Z,26.98
2023-01-28T11:16:58.876Z,27.00
2023-01-28T11:17:58.923Z,27.01
2023-01-28T11:18:58.813Z,27.07
2023-01-28T11:19:58.777Z,27.08
2023-01-28T11:20:58.742Z,27.13
2023-01-28T11:21:58.686Z,27.13
2023-01-28T11:22:58.675Z,27.15
2023-01-28T11:23:59.440Z,27.14
2023-01-28T11:24:58.606Z,27.17
2023-01-28T11:25:58.552Z,27.21
2023-01-28T11:26:58.964Z,27.18
2023-01-28T11:27:58.475Z,27.15
2023-01-28T11:28:58.433Z,27.14
2023-01-28T11:29:58.398Z,27.13
2023-01-28T11:30:58.414Z,27.13
2023-01-28T11:31:59.040Z,27.08
2023-01-28T11:32:58.282Z,27.15
2023-01-28T11:33:58.248Z,27.13
2023-01-28T11:34:58.265Z,27.15
2023-01-28T11:35:58.204Z,27.15
2023-01-28T11:36:58.161Z,27.14
2023-01-28T11:37:58.134Z,27.08
2023-01-28T11:38:58.082Z,27.14
2023-01-28T11:39:58.062Z,27.21
2023-01-28T11:40:58.052Z,27.21
2023-01-28T11:41:57.974Z,27.15
2023-01-28T11:42:57.958Z,27.13
2023-01-28T11:43:57.918Z,27.13
2023-01-28T11:44:57.907Z,27.22
2023-01-28T11:45:57.897Z,27.30
2023-01-28T11:46:57.803Z,27.34
2023-01-28T11:47:57.764Z,27.39
2023-01-28T11:48:57.712Z,27.45
2023-01-28T11:49:57.674Z,27.49
2023-01-28T11:50:57.640Z,27.55
2023-01-28T11:51:57.617Z,27.52
2023-01-28T11:53:07.436Z,27.48
2023-01-28T11:53:58.523Z,27.44
2023-01-28T11:54:57.470Z,27.42
2023-01-28T11:55:57.437Z,27.45
2023-01-28T11:56:57.381Z,27.45
2023-01-28T11:57:57.336Z,27.39
2023-01-28T11:58:57.298Z,27.37
2023-01-28T11:59:57.247Z,27.37
2023-01-28T12:00:57.236Z,27.37
2023-01-28T12:01:57.175Z,27.35
2023-01-28T12:02:57.172Z,27.39
2023-01-28T12:03:57.110Z,27.39
2023-01-28T12:04:57.106Z,27.41
2023-01-28T12:05:57.034Z,27.41
2023-01-28T12:06:56.968Z,27.34
2023-01-28T12:07:56.936Z,27.39
2023-01-28T12:08:56.883Z,27.37
2023-01-28T12:09:56.839Z,27.42
2023-01-28T12:10:56.820Z,27.41
2023-01-28T12:11:56.760Z,27.44
2023-01-28T12:12:56.733Z,27.41
2023-01-28T12:13:56.711Z,27.45
2023-01-28T12:14:56.698Z,27.46
2023-01-28T12:15:56.670Z,27.44
2023-01-28T12:16:56.581Z,27.39
2023-01-28T12:17:56.534Z,27.38
2023-01-28T12:18:56.482Z,27.39
2023-01-28T12:19:56.453Z,27.35
2023-01-28T12:20:56.416Z,27.31
2023-01-28T12:21:56.424Z,27.25
2023-01-28T12:22:58.318Z,27.27
2023-01-28T12:23:56.361Z,27.24
2023-01-28T12:24:56.249Z,27.21
2023-01-28T12:25:56.220Z,27.20
2023-01-28T12:26:56.228Z,27.18
2023-01-28T12:27:56.179Z,27.17
2023-01-28T12:28:56.123Z,27.14
2023-01-28T12:29:56.100Z,27.13
2023-01-28T12:30:56.060Z,27.10
2023-01-28T12:31:56.073Z,27.11
2023-01-28T12:32:55.976Z,27.10
2023-01-28T12:33:55.941Z,27.07
2023-01-28T12:34:55.900Z,27.07
2023-01-28T12:35:55.863Z,27.07
2023-01-28T12:36:55.837Z,27.03
2023-01-28T12:37:55.785Z,27.07
2023-01-28T12:38:55.746Z,27.05
2023-01-28T12:39:55.690Z,27.03
2023-01-28T12:40:55.658Z,27.05
2023-01-28T12:41:55.624Z,27.08
2023-01-28T12:42:55.576Z,27.11
2023-01-28T12:43:55.535Z,27.10
2023-01-28T12:44:55.541Z,27.07
2023-01-28T12:45:55.514Z,27.11
2023-01-28T12:46:55.456Z,27.13
2023-01-28T12:47:55.410Z,27.20
2023-01-28T12:48:55.372Z,27.25
2023-01-28T12:49:55.343Z,27.25
2023-01-28T12:50:55.291Z,27.30
2023-01-28T12:51:55.269Z,27.28
2023-01-28T12:52:55.221Z,27.28
2023-01-28T12:53:55.188Z,27.27
2023-01-28T12:54:55.183Z,27.25
2023-01-28T12:55:55.089Z,27.24
2023-01-28T12:56:55.095Z,27.24
2023-01-28T12:57:55.070Z,27.22
2023-01-28T12:58:55.004Z,27.22
2023-01-28T12:59:54.955Z,27.20
2023-01-28T13:00:54.936Z,27.17
2023-01-28T13:01:54.931Z,27.20
2023-01-28T13:02:54.845Z,27.17
2023-01-28T13:03:54.824Z,27.15
2023-01-28T13:04:54.772Z,27.10
2023-01-28T13:05:54.746Z,27.14
2023-01-28T13:06:54.711Z,27.11
2023-01-28T13:07:54.662Z,27.08
2023-01-28T14:20:52.207Z,26.58
2023-01-28T14:21:52.144Z,26.55
2023-01-28T14:22:52.147Z,26.55
2023-01-28T14:23:52.176Z,26.56
2023-01-28T14:24:52.183Z,26.58
2023-01-28T14:25:52.039Z,26.55
2023-01-28T14:26:51.997Z,26.58
2023-01-28T14:27:52.017Z,26.56
2023-01-28T14:28:51.962Z,26.55
2023-01-28T14:29:51.909Z,26.53
2023-01-28T14:30:52.030Z,26.56
2023-01-28T14:31:52.015Z,26.52
2023-01-28T14:32:51.835Z,26.50
2023-01-28T14:33:51.810Z,26.52
2023-01-28T14:34:51.762Z,26.52
2023-01-28T14:35:51.745Z,26.48
2023-01-28T14:36:51.704Z,26.49
2023-01-28T14:37:51.712Z,26.46
2023-01-28T14:38:51.683Z,26.49
2023-01-28T14:39:51.639Z,26.43
2023-01-28T14:40:51.610Z,26.46
2023-01-28T14:41:51.580Z,26.42
2023-01-28T14:42:51.561Z,26.43
2023-01-28T14:43:51.538Z,26.46
2023-01-28T14:44:51.500Z,26.45
2023-01-28T14:45:51.484Z,26.45
2023-01-28T14:46:51.515Z,26.43
2023-01-28T14:47:51.430Z,26.43
2023-01-28T14:48:51.410Z,26.45
2023-01-28T14:49:51.353Z,26.39
2023-01-28T14:50:51.332Z,26.42
2023-01-28T14:51:51.285Z,26.42
2023-01-28T14:52:51.265Z,26.42
2023-01-28T14:53:51.238Z,26.42
2023-01-28T14:54:51.192Z,26.42
2023-01-28T14:55:51.156Z,26.41
2023-01-28T14:56:51.118Z,26.41
2023-01-28T14:57:51.086Z,26.36
2023-01-28T14:58:51.076Z,26.38
2023-01-28T14:59:51.045Z,26.39
2023-01-28T15:00:50.998Z,26.39
2023-01-28T15:01:51.037Z,26.41
2023-01-28T15:02:51.021Z,26.38
2023-01-28T15:03:50.959Z,26.35
2023-01-28T15:04:50.900Z,26.39
2023-01-28T15:05:50.881Z,26.38
2023-01-28T15:06:51.016Z,26.38
2023-01-28T15:07:50.839Z,26.38
2023-01-28T15:08:50.831Z,26.38
2023-01-28T15:09:50.793Z,26.38
2023-01-28T15:10:50.765Z,26.36
2023-01-28T15:11:50.744Z,26.31
2023-01-28T15:12:50.697Z,26.32
2023-01-28T15:13:50.677Z,26.32
2023-01-28T15:14:50.668Z,26.34
2023-01-28T15:15:50.636Z,26.32
2023-01-28T15:16:50.653Z,26.28
2023-01-28T15:17:50.574Z,26.31
2023-01-28T15:18:50.556Z,26.28
2023-01-28T15:19:50.563Z,26.32
2023-01-28T15:20:50.531Z,26.27
2023-01-28T15:21:50.505Z,26.30
2023-01-28T15:22:50.452Z,26.28
2023-01-28T15:23:50.413Z,26.30
2023-01-28T15:24:50.417Z,26.28
2023-01-28T15:25:50.370Z,26.30
2023-01-28T15:26:50.342Z,26.27
2023-01-28T15:27:50.335Z,26.24
2023-01-28T15:28:50.301Z,26.21
2023-01-28T15:29:50.297Z,26.25
2023-01-28T15:30:50.305Z,26.24
2023-01-28T15:31:50.266Z,26.25
2023-01-28T15:32:50.236Z,26.20
2023-01-28T15:33:50.188Z,26.20
2023-01-28T15:34:50.194Z,26.21
2023-01-28T15:35:50.179Z,26.20
2023-01-28T15:36:50.113Z,26.22
2023-01-28T15:37:50.101Z,26.20
2023-01-28T15:38:50.098Z,26.20
2023-01-28T15:39:50.048Z,26.18
2023-01-28T15:40:50.070Z,26.15
2023-01-28T15:41:49.996Z,26.15
2023-01-28T15:42:49.966Z,26.15
2023-01-28T15:43:49.940Z,26.15
2023-01-28T15:44:49.899Z,26.14
2023-01-28T15:45:49.915Z,26.15
2023-01-28T15:46:49.862Z,26.14
2023-01-28T15:47:49.826Z,26.13
2023-01-28T15:48:49.798Z,26.11
2023-01-28T15:49:49.785Z,26.15
2023-01-28T15:50:49.751Z,26.13
2023-01-28T15:51:49.725Z,26.13
2023-01-28T15:52:49.719Z,26.11
2023-01-28T15:53:49.679Z,26.11
2023-01-28T15:54:49.662Z,26.13
2023-01-28T15:55:49.604Z,26.14
2023-01-28T15:56:49.570Z,26.11
2023-01-28T15:57:49.557Z,26.08
2023-01-28T15:58:49.538Z,26.08
2023-01-28T15:59:49.532Z,26.07
2023-01-28T16:00:49.553Z,26.04
2023-01-28T16:01:49.448Z,26.04
2023-01-28T16:02:49.429Z,26.05
2023-01-28T16:03:49.397Z,26.03
2023-01-28T16:04:49.398Z,26.03
2023-01-28T16:05:49.391Z,26.05
2023-01-28T16:06:49.313Z,26.01
2023-01-28T16:07:49.305Z,26.00
2023-01-28T16:08:49.286Z,26.05
2023-01-28T16:09:49.279Z,26.04
2023-01-28T16:10:49.251Z,26.04
2023-01-28T16:11:49.209Z,26.01
2023-01-28T16:12:49.187Z,26.01
2023-01-28T16:13:49.164Z,26.01
2023-01-28T16:14:49.147Z,26.03
2023-01-28T16:15:49.138Z,25.98
2023-01-28T16:16:49.068Z,26.01
2023-01-28T16:17:49.038Z,26.01
2023-01-28T16:18:49.026Z,25.98
2023-01-28T16:19:49.032Z,26.01
2023-01-28T16:20:48.999Z,25.98
2023-01-28T16:21:48.992Z,25.96
2023-01-28T16:22:48.945Z,25.96
2023-01-28T16:23:48.905Z,25.98
2023-01-28T16:24:48.912Z,25.97
2023-01-28T16:25:48.896Z,25.96
2023-01-28T16:26:48.850Z,25.96
2023-01-28T16:27:48.847Z,25.94
2023-01-28T16:28:48.806Z,25.96
2023-01-28T16:29:48.810Z,25.96
2023-01-28T16:30:48.825Z,25.93
2023-01-28T16:31:48.940Z,25.90
2023-01-28T16:32:48.752Z,25.91
2023-01-28T16:33:48.761Z,25.91
2023-01-28T16:34:48.721Z,25.93
2023-01-28T16:36:05.422Z,25.91
2023-01-28T16:36:49.670Z,25.93
2023-01-28T16:37:48.656Z,25.87
2023-01-28T16:38:48.646Z,25.90
2023-01-28T16:39:48.635Z,25.87
2023-01-28T16:40:48.615Z,25.90
2023-01-28T16:41:48.654Z,25.87
2023-01-28T16:42:48.593Z,25.87
2023-01-28T16:43:48.567Z,25.90
2023-01-28T16:44:48.541Z,25.87
2023-01-28T16:45:48.532Z,25.87
2023-01-28T16:46:48.541Z,25.88
2023-01-28T16:47:48.481Z,25.84
2023-01-28T16:48:48.450Z,25.87
2023-01-28T16:49:48.448Z,25.84
2023-01-28T16:50:48.454Z,25.84
2023-01-28T16:51:48.423Z,25.86
2023-01-28T16:52:48.373Z,25.84
2023-01-28T16:53:48.374Z,25.83
2023-01-28T16:54:48.342Z,25.84
2023-01-28T16:55:48.350Z,25.84
2023-01-28T16:56:48.312Z,25.81
2023-01-28T16:57:48.314Z,25.83
2023-01-28T16:58:48.275Z,25.80
2023-01-28T16:59:48.286Z,25.83
2023-01-28T17:00:48.328Z,25.84
2023-01-28T17:01:48.246Z,25.84
2023-01-28T17:02:48.200Z,25.80
2023-01-28T17:03:48.217Z,25.80
2023-01-28T17:04:48.191Z,25.81
2023-01-28T17:05:48.161Z,25.81
2023-01-28T17:06:48.124Z,25.77
2023-01-28T17:07:48.119Z,25.77
2023-01-28T17:08:48.092Z,25.76
2023-01-28T17:09:48.075Z,25.75
2023-01-28T17:10:48.075Z,25.77
2023-01-28T17:11:48.043Z,25.76
2023-01-28T17:12:48.053Z,25.75
2023-01-28T17:13:48.010Z,25.76
2023-01-28T17:14:48.014Z,25.75
2023-01-28T17:15:48.006Z,25.75
2023-01-28T17:16:47.946Z,25.75
2023-01-28T17:17:47.977Z,25.75
2023-01-28T17:18:48.793Z,25.77
2023-01-28T17:19:47.933Z,25.76
2023-01-28T17:20:47.875Z,25.76
2023-01-28T17:21:47.849Z,25.76
2023-01-28T17:22:47.828Z,25.73
2023-01-28T17:23:47.811Z,25.73
2023-01-28T17:24:47.837Z,25.75
2023-01-28T17:25:47.822Z,25.73
2023-01-28T17:26:47.761Z,25.75
2023-01-28T17:27:47.766Z,25.73
2023-01-28T17:28:47.729Z,25.72
2023-01-28T17:29:47.725Z,25.73
2023-01-28T17:30:47.772Z,25.72
2023-01-28T17:31:47.731Z,25.69
2023-01-28T17:32:47.667Z,25.72
2023-01-28T17:33:47.640Z,25.72
2023-01-28T17:34:47.632Z,25.72
2023-01-28T17:35:47.615Z,25.73
2023-01-28T17:36:47.604Z,25.72
2023-01-28T17:37:47.589Z,25.70
2023-01-28T17:38:47.566Z,25.73
2023-01-28T17:39:47.558Z,25.70
2023-01-28T17:40:47.512Z,25.69
2023-01-28T17:41:47.506Z,25.69
2023-01-28T17:42:47.475Z,25.69
2023-01-28T17:43:47.461Z,25.66
2023-01-28T17:44:47.409Z,25.70
2023-01-28T17:45:47.466Z,25.66
2023-01-28T17:46:47.432Z,25.69
2023-01-28T17:47:47.374Z,25.68
2023-01-28T17:48:47.345Z,25.66
2023-01-28T17:49:47.352Z,25.69
2023-01-28T17:50:47.316Z,25.68
2023-01-28T17:51:47.299Z,25.63
2023-01-28T17:52:47.276Z,25.66
2023-01-28T17:53:47.240Z,25.62
2023-01-28T17:54:47.250Z,25.66
2023-01-28T17:55:47.171Z,25.63
2023-01-28T17:56:47.162Z,25.66
2023-01-28T17:57:47.142Z,25.65
2023-01-28T17:58:47.117Z,25.65
2023-01-28T17:59:47.141Z,25.62
2023-01-28T18:00:47.101Z,25.58
2023-01-28T18:01:47.133Z,25.62
2023-01-28T18:02:47.057Z,25.65
2023-01-28T18:03:47.042Z,25.65
2023-01-28T18:04:47.046Z,25.60
2023-01-28T18:05:47.005Z,25.60
2023-01-28T18:06:46.986Z,25.60
2023-01-28T18:07:46.969Z,25.60
2023-01-28T18:08:46.948Z,25.59
2023-01-28T18:09:46.940Z,25.63
2023-01-28T18:10:46.894Z,25.59
2023-01-28T18:11:46.897Z,25.62
2023-01-28T18:12:46.884Z,25.62
2023-01-28T18:13:46.872Z,25.62
2023-01-28T18:14:46.803Z,25.58
2023-01-28T18:15:46.791Z,25.62
2023-01-28T18:16:46.832Z,25.63
2023-01-28T18:17:46.838Z,25.62
2023-01-28T18:18:46.780Z,25.59
2023-01-28T18:19:46.738Z,25.62
2023-01-28T18:20:46.746Z,25.60
2023-01-28T18:21:53.119Z,25.60
2023-01-28T18:22:47.683Z,25.59
2023-01-28T18:23:46.634Z,25.58
2023-01-28T18:24:46.621Z,25.56
2023-01-28T18:25:46.629Z,25.58
2023-01-28T18:26:46.622Z,25.58
2023-01-28T18:27:46.608Z,25.56
2023-01-28T18:28:46.560Z,25.58
2023-01-28T18:29:46.531Z,25.62
2023-01-28T18:30:46.556Z,25.60
2023-01-28T18:31:46.645Z,25.58
2023-01-28T18:32:46.475Z,25.58
2023-01-28T18:33:46.451Z,25.60
2023-01-28T18:34:46.459Z,25.59
2023-01-28T18:35:46.431Z,25.59
2023-01-28T18:36:46.455Z,25.54
2023-01-28T18:37:46.391Z,25.54
2023-01-28T18:38:46.437Z,25.56
2023-01-28T18:39:46.358Z,25.56
2023-01-28T18:40:46.365Z,25.56
2023-01-28T18:41:46.354Z,25.56
2023-01-28T18:42:46.357Z,25.52